Time;durP1;ratioP1;P1;durP2;ratioP2;P2;SDS_P1;SDS_P2;PMS_P1;PMS_P2;Temp;Humidity;BMP_temperature;BMP_pressure;BME280_temperature;BME280_humidity;BME280_pressure;Samples;Min_cycle;Max_cycle;Signal;HPM_P1;HPM_P2
2023/12/02 04:32:38;;;;;;;2.85;2.60;;;17.70;53.60;;;;;;5049631;27;20334;-45
2023/12/02 04:35:05;;;;;;;3.42;2.60;;;17.80;54.10;;;;;;5035200;28;20059;-47
2023/12/02 04:37:31;;;;;;;3.38;2.67;;;17.80;54.00;;;;;;5048445;28;20041;-45
2023/12/02 04:39:57;;;;;;;2.50;2.30;;;17.90;54.00;;;;;;5072989;28;20481;-45
2023/12/02 04:42:23;;;;;;;3.00;2.67;;;17.90;54.00;;;;;;5071712;28;20040;-46
2023/12/02 04:44:48;;;;;;;3.83;2.65;;;17.90;53.90;;;;;;5067811;28;20028;-47
2023/12/02 04:47:14;;;;;;;2.42;2.20;;;17.90;53.90;;;;;;5066958;28;20692;-48
2023/12/02 04:49:40;;;;;;;2.60;2.40;;;18.00;53.90;;;;;;5066519;28;20104;-44
2023/12/02 04:52:05;;;;;;;3.70;2.28;;;18.00;53.80;;;;;;5071443;28;20032;-45
2023/12/02 04:54:31;;;;;;;3.20;2.38;;;18.00;53.80;;;;;;5052943;28;20048;-46
2023/12/02 04:56:56;;;;;;;2.60;2.28;;;18.00;53.70;;;;;;5075885;28;20036;-45
2023/12/02 04:59:22;;;;;;;2.45;2.25;;;18.00;53.70;;;;;;5074047;28;20032;-45
2023/12/02 05:01:47;;;;;;;3.25;2.28;;;18.10;53.70;;;;;;5075871;28;20024;-45
2023/12/02 05:04:13;;;;;;;2.97;2.55;;;18.10;53.70;;;;;;5075896;28;20036;-45
2023/12/02 05:06:39;;;;;;;3.88;2.25;;;18.10;53.80;;;;;;5079266;28;20032;-45
2023/12/02 05:09:07;;;;;;;3.03;2.63;;;18.10;53.80;;;;;;5075641;28;20059;-47
2023/12/02 05:11:33;;;;;;;2.20;2.00;;;18.20;53.70;;;;;;5052768;28;20056;-46
2023/12/02 05:13:59;;;;;;;3.33;2.47;;;18.20;53.60;;;;;;5056379;28;20396;-44
2023/12/02 05:16:24;;;;;;;2.72;2.08;;;18.20;53.50;;;;;;5076469;28;20248;-51
2023/12/02 05:18:50;;;;;;;3.08;2.35;;;18.20;53.60;;;;;;5077181;28;20111;-46
2023/12/02 05:21:16;;;;;;;2.58;2.25;;;18.20;53.50;;;;;;5071956;28;20025;-48
2023/12/02 05:23:41;;;;;;;4.18;2.58;;;18.30;53.60;;;;;;5075891;28;20024;-46
2023/12/02 05:26:08;;;;;;;2.42;2.10;;;18.30;53.60;;;;;;5081376;28;20076;-48
2023/12/02 05:28:33;;;;;;;2.50;2.30;;;18.30;53.50;;;;;;5060180;28;20024;-52
2023/12/02 05:30:59;;;;;;;2.40;2.20;;;18.30;54.10;;;;;;5067310;28;20094;-49
2023/12/02 05:33:24;;;;;;;3.25;2.70;;;18.40;53.60;;;;;;5062669;28;20477;-48
2023/12/02 05:35:50;;;;;;;2.30;2.10;;;18.40;53.30;;;;;;5073322;28;20036;-45
2023/12/02 05:38:16;;;;;;;2.47;2.28;;;18.40;53.30;;;;;;5073221;28;20060;-52
2023/12/02 05:40:42;;;;;;;2.58;2.38;;;18.50;53.20;;;;;;5055294;28;20512;-47
2023/12/02 05:43:08;;;;;;;3.25;2.45;;;18.50;53.20;;;;;;5065381;28;20040;-50
2023/12/02 05:45:34;;;;;;;2.80;2.45;;;18.50;53.00;;;;;;5059464;28;20027;-44
2023/12/02 05:47:59;;;;;;;2.70;2.50;;;18.50;53.00;;;;;;5059205;28;20025;-44
2023/12/02 05:50:25;;;;;;;4.22;2.35;;;18.50;53.00;;;;;;5056330;28;20041;-44
2023/12/02 05:52:51;;;;;;;2.55;2.35;;;18.50;52.90;;;;;;5053461;28;20103;-46
2023/12/02 05:55:17;;;;;;;3.33;2.88;;;18.60;53.00;;;;;;5051419;28;20553;-47
2023/12/02 05:57:46;;;;;;;2.65;2.45;;;18.60;53.00;;;;;;5053774;28;20386;-49
2023/12/02 06:00:12;;;;;;;2.70;2.50;;;18.60;53.00;;;;;;5057355;28;20672;-41
2023/12/02 06:02:38;;;;;;;2.92;2.40;;;18.60;52.90;;;;;;5063907;28;20179;-45
2023/12/02 06:05:04;;;;;;;3.15;2.58;;;18.60;52.90;;;;;;5061919;28;20033;-42
2023/12/02 06:07:30;;;;;;;2.67;2.47;;;18.60;53.00;;;;;;5060817;28;20055;-50
2023/12/02 06:09:55;;;;;;;2.80;2.47;;;18.60;53.10;;;;;;5065178;28;20483;-44
2023/12/02 06:12:21;;;;;;;3.58;2.67;;;18.60;53.30;;;;;;5062427;28;20078;-43
2023/12/02 06:14:46;;;;;;;3.45;2.45;;;18.60;53.10;;;;;;5064095;28;20154;-46
2023/12/02 06:17:12;;;;;;;2.28;2.08;;;18.60;53.20;;;;;;5061778;28;20104;-42
2023/12/02 06:19:37;;;;;;;2.60;2.40;;;18.60;53.20;;;;;;5044809;28;20025;-42
2023/12/02 06:22:03;;;;;;;2.33;2.13;;;18.60;53.20;;;;;;5060961;28;20025;-47
2023/12/02 06:24:29;;;;;;;2.63;2.30;;;18.60;53.10;;;;;;5063115;28;20029;-52
2023/12/02 06:26:54;;;;;;;2.85;2.53;;;18.60;53.20;;;;;;5066063;28;20065;-48
2023/12/02 06:29:20;;;;;;;2.53;2.33;;;18.70;53.10;;;;;;5058020;28;20044;-44
2023/12/02 06:31:49;;;;;;;3.53;2.75;;;18.70;53.10;;;;;;5045687;28;20055;-46
2023/12/02 06:34:15;;;;;;;2.58;2.38;;;18.70;53.10;;;;;;5057481;28;20021;-47
2023/12/02 06:36:40;;;;;;;2.47;2.25;;;18.70;53.10;;;;;;5061150;28;20049;-43
2023/12/02 06:39:07;;;;;;;3.55;3.25;;;18.80;53.10;;;;;;5058367;28;20024;-47
2023/12/02 06:41:33;;;;;;;3.50;2.63;;;18.80;52.90;;;;;;5062614;28;21611;-47
2023/12/02 06:43:58;;;;;;;2.67;2.47;;;18.80;52.90;;;;;;5060134;28;20039;-43
2023/12/02 06:46:24;;;;;;;3.22;2.72;;;18.80;52.80;;;;;;5057849;28;20028;-41
2023/12/02 06:48:50;;;;;;;2.88;2.58;;;18.80;52.70;;;;;;5057538;28;20465;-51
2023/12/02 06:51:15;;;;;;;3.30;2.80;;;18.80;52.70;;;;;;5053588;28;20044;-51
2023/12/02 06:53:41;;;;;;;2.80;2.58;;;18.80;52.60;;;;;;5052464;28;20037;-45
2023/12/02 06:56:17;;;;;;;3.33;3.00;;;18.90;52.60;;;;;;5048509;28;20741;-42
2023/12/02 06:58:42;;;;;;;3.53;3.22;;;18.90;52.50;;;;;;5051024;28;20029;-42
2023/12/02 07:01:08;;;;;;;3.08;2.75;;;18.90;52.50;;;;;;5059968;28;20508;-47
2023/12/02 07:03:34;;;;;;;3.20;2.90;;;18.90;52.50;;;;;;5063445;28;20021;-50
2023/12/02 07:05:59;;;;;;;3.00;2.80;;;18.90;52.50;;;;;;5056129;28;20037;-41
2023/12/02 07:08:25;;;;;;;3.45;3.15;;;18.90;52.40;;;;;;5055740;28;20040;-43
2023/12/02 07:10:51;;;;;;;3.40;2.90;;;18.90;52.50;;;;;;5052823;28;20109;-44
2023/12/02 07:13:16;;;;;;;3.92;2.97;;;18.90;52.50;;;;;;5051265;28;20024;-51
2023/12/02 07:15:42;;;;;;;3.85;3.10;;;18.90;52.50;;;;;;5051752;28;20047;-41
2023/12/02 07:18:08;;;;;;;4.35;3.10;;;18.90;52.50;;;;;;5057964;28;20029;-46
2023/12/02 07:20:33;;;;;;;5.93;3.13;;;18.90;52.50;;;;;;5036130;28;20480;-45
2023/12/02 07:23:00;;;;;;;3.50;3.20;;;18.90;52.50;;;;;;5056210;28;20028;-47
2023/12/02 07:25:25;;;;;;;3.80;3.40;;;19.00;52.60;;;;;;5054266;28;20052;-45
2023/12/02 07:27:50;;;;;;;4.20;3.60;;;19.00;52.60;;;;;;5054658;28;20040;-51
2023/12/02 07:30:16;;;;;;;5.82;3.83;;;19.00;52.60;;;;;;5042672;28;20024;-54
2023/12/02 07:32:44;;;;;;;7.63;5.25;;;19.00;52.60;;;;;;5035685;28;20120;-43
2023/12/02 07:35:10;;;;;;;13.63;8.88;;;18.90;52.80;;;;;;5036749;28;20035;-45
2023/12/02 07:37:36;;;;;;;15.82;10.68;;;18.90;52.80;;;;;;5040555;28;20028;-45
2023/12/02 07:40:01;;;;;;;18.30;11.80;;;18.90;52.70;;;;;;5036907;28;20024;-48
2023/12/02 07:42:27;;;;;;;19.02;11.40;;;18.90;52.60;;;;;;5055051;28;20124;-52
2023/12/02 07:44:52;;;;;;;20.92;12.43;;;18.80;52.60;;;;;;5056125;28;20082;-46
2023/12/02 07:47:18;;;;;;;18.15;11.45;;;18.80;52.60;;;;;;5056775;28;20036;-45
2023/12/02 07:49:43;;;;;;;16.55;11.25;;;18.70;52.70;;;;;;5061375;28;20032;-50
2023/12/02 07:52:08;;;;;;;17.92;10.27;;;18.70;52.70;;;;;;5054211;28;20058;-54
2023/12/02 07:54:34;;;;;;;14.50;10.32;;;18.60;52.60;;;;;;5056739;28;20688;-43
2023/12/02 07:56:59;;;;;;;17.33;9.85;;;18.60;52.60;;;;;;5055212;28;20032;-46
2023/12/02 07:59:25;;;;;;;13.38;9.57;;;18.60;52.50;;;;;;5055171;28;20128;-51
2023/12/02 08:01:50;;;;;;;12.45;8.73;;;18.60;52.40;;;;;;5052659;28;20709;-48
2023/12/02 08:04:16;;;;;;;14.02;8.75;;;18.50;52.30;;;;;;5038501;28;20111;-47
2023/12/02 08:06:41;;;;;;;16.63;8.82;;;18.50;51.90;;;;;;5058634;28;20594;-45
2023/12/02 08:09:07;;;;;;;13.00;8.52;;;18.50;52.20;;;;;;5053896;28;20120;-44
2023/12/02 08:11:32;;;;;;;11.45;8.65;;;18.40;52.20;;;;;;5040925;28;20426;-45
2023/12/02 08:13:58;;;;;;;12.77;8.82;;;18.40;52.50;;;;;;5066755;28;20044;-46
2023/12/02 08:16:23;;;;;;;16.17;8.70;;;18.30;52.70;;;;;;5045370;28;20036;-45
2023/12/02 08:18:49;;;;;;;12.82;8.27;;;18.30;52.80;;;;;;5061526;28;20024;-45
2023/12/02 08:21:14;;;;;;;12.05;7.88;;;18.20;52.90;;;;;;5056660;28;20049;-46
2023/12/02 08:23:40;;;;;;;10.00;7.68;;;18.10;52.90;;;;;;5064429;28;20032;-45
2023/12/02 08:26:06;;;;;;;12.13;7.80;;;18.10;53.10;;;;;;5062390;28;20056;-42
2023/12/02 08:28:32;;;;;;;12.02;7.43;;;18.10;53.20;;;;;;5061256;28;20078;-45
2023/12/02 08:30:57;;;;;;;9.55;6.50;;;18.00;53.20;;;;;;5063246;28;20029;-46
2023/12/02 08:33:23;;;;;;;13.35;7.35;;;18.00;53.30;;;;;;5046540;28;20032;-46
2023/12/02 08:35:48;;;;;;;9.18;7.15;;;18.00;53.30;;;;;;5061986;28;20024;-45
2023/12/02 08:38:14;;;;;;;10.15;6.43;;;18.00;53.30;;;;;;5063663;28;20039;-46
2023/12/02 08:40:39;;;;;;;11.00;6.72;;;17.90;53.30;;;;;;5059878;28;20021;-46
2023/12/02 08:43:05;;;;;;;12.60;7.47;;;17.90;53.50;;;;;;5061381;28;20547;-45
2023/12/02 08:45:30;;;;;;;7.57;6.22;;;17.90;53.50;;;;;;5062683;28;20021;-46
2023/12/02 08:47:56;;;;;;;10.70;6.63;;;17.90;53.60;;;;;;5063132;28;20063;-45
2023/12/02 08:50:21;;;;;;;8.70;6.75;;;17.90;53.70;;;;;;5061392;28;20025;-45
2023/12/02 08:52:47;;;;;;;12.48;6.68;;;17.80;53.70;;;;;;5061291;28;20052;-45
2023/12/02 08:55:12;;;;;;;7.25;5.97;;;17.80;53.70;;;;;;5060092;28;20047;-45
2023/12/02 08:57:38;;;;;;;9.32;6.03;;;17.80;53.70;;;;;;5061475;28;20078;-46
2023/12/02 09:00:05;;;;;;;9.02;5.90;;;17.80;54.40;;;;;;5060335;28;20101;-45
2023/12/02 09:02:30;;;;;;;14.90;5.70;;;17.90;55.20;;;;;;5063624;28;20083;-45
2023/12/02 09:04:55;;;;;;;10.43;5.93;;;17.90;55.40;;;;;;5053999;28;20028;-45
2023/12/02 09:07:21;;;;;;;8.20;5.70;;;17.90;55.60;;;;;;5058087;28;20017;-45
2023/12/02 09:09:46;;;;;;;8.35;5.32;;;17.90;55.80;;;;;;5057243;28;20401;-46
2023/12/02 09:12:12;;;;;;;6.63;5.25;;;17.80;55.60;;;;;;5041251;28;20029;-45
2023/12/02 09:14:37;;;;;;;5.75;5.15;;;17.70;56.30;;;;;;5057326;28;20078;-46
2023/12/02 09:17:04;;;;;;;8.35;5.57;;;17.70;55.70;;;;;;5040073;28;20040;-45
2023/12/02 09:19:29;;;;;;;6.45;4.75;;;17.70;55.30;;;;;;5061905;28;20035;-45
2023/12/02 09:21:55;;;;;;;8.00;5.00;;;17.60;55.00;;;;;;5062106;28;20032;-45
2023/12/02 09:24:37;;;;;;;5.47;4.68;;;17.60;54.80;;;;;;5063708;28;20061;-46
2023/12/02 09:27:05;;;;;;;7.50;4.93;;;17.60;54.70;;;;;;5041195;28;20035;-46
2023/12/02 09:29:43;;;;;;;5.93;4.10;;;17.60;54.70;;;;;;5058899;28;20039;-45
2023/12/02 10:55:03;;;;;;;13.38;6.60;;;18.20;55.50;;;;;;5039306;28;20357;-47
2023/12/02 10:57:29;;;;;;;13.13;7.40;;;18.40;55.00;;;;;;5018072;28;20034;-46
2023/12/02 11:00:13;;;;;;;17.00;6.72;;;18.20;55.30;;;;;;5005413;28;20053;-50
2023/12/02 11:02:50;;;;;;;13.85;7.18;;;18.20;55.70;;;;;;5000831;28;20036;-49
2023/12/02 11:05:26;;;;;;;11.55;6.65;;;18.10;56.00;;;;;;4996840;28;20711;-48
2023/12/02 11:07:55;;;;;;;9.43;6.10;;;18.10;56.30;;;;;;5001665;28;20975;-50
2023/12/02 11:10:47;;;;;;;11.02;7.07;;;18.10;56.40;;;;;;5000341;28;20038;-46
2023/12/02 11:13:18;;;;;;;18.15;6.75;;;18.00;56.20;;;;;;5001026;28;20558;-45
2023/12/02 11:16:15;;;;;;;14.43;6.30;;;17.90;56.00;;;;;;4999303;28;20030;-48
2023/12/02 11:19:10;;;;;;;11.20;6.20;;;17.90;56.20;;;;;;5007644;28;20037;-47
2023/12/02 11:22:09;;;;;;;10.52;5.55;;;18.00;56.30;;;;;;5006380;28;20038;-47
2023/12/02 11:24:46;;;;;;;16.05;6.65;;;17.90;56.20;;;;;;5001965;28;20073;-45
2023/12/02 11:27:21;;;;;;;12.60;7.05;;;17.80;56.10;;;;;;4997455;28;20030;-47
2023/12/02 11:30:08;;;;;;;13.50;6.20;;;17.80;56.00;;;;;;4987544;28;20085;-45
2023/12/02 11:32:47;;;;;;;14.85;5.53;;;17.80;56.00;;;;;;4991256;28;20041;-47
2023/12/02 11:35:25;;;;;;;14.27;6.38;;;17.80;56.00;;;;;;5010563;22;20064;-45
2023/12/02 11:38:15;;;;;;;11.85;6.30;;;17.70;56.10;;;;;;4998869;28;20042;-45
2023/12/02 11:40:54;;;;;;;10.40;5.55;;;17.60;56.10;;;;;;4997124;28;20121;-46
2023/12/02 11:43:55;;;;;;;12.52;6.70;;;17.60;56.00;;;;;;5001111;28;20044;-48
2023/12/02 11:46:29;;;;;;;20.77;6.13;;;17.60;56.50;;;;;;4998646;28;20590;-45
2023/12/02 11:49:45;;;;;;;22.03;6.90;;;17.60;57.10;;;;;;4999545;28;20034;-47
2023/12/02 11:52:16;;;;;;;15.38;5.25;;;17.70;56.70;;;;;;4957305;28;20251;-45
2023/12/02 11:55:16;;;;;;;20.33;5.32;;;18.20;56.10;;;;;;4988386;28;20113;-49
2023/12/02 11:57:53;;;;;;;16.75;5.72;;;18.80;54.90;;;;;;4995274;28;20040;-47
2023/12/02 12:00:48;;;;;;;16.05;5.45;;;19.10;54.20;;;;;;5033720;28;20064;-50
2023/12/02 12:03:39;;;;;;;12.18;5.22;;;19.40;53.60;;;;;;5030435;28;20057;-45
2023/12/02 12:06:29;;;;;;;8.95;4.93;;;19.70;53.10;;;;;;5019522;28;20026;-51
2023/12/02 12:09:40;;;;;;;9.18;4.80;;;19.80;52.90;;;;;;5022162;28;20049;-51
2023/12/02 12:12:08;;;;;;;8.73;4.45;;;20.00;52.60;;;;;;4938796;28;20035;-55
2023/12/02 12:14:37;;;;;;;10.48;4.40;;;20.20;52.40;;;;;;5006323;28;20733;-49
2023/12/02 12:17:03;;;;;;;10.95;4.82;;;20.30;52.30;;;;;;5022733;28;20037;-45
2023/12/02 12:19:28;;;;;;;10.30;4.07;;;20.40;52.10;;;;;;5014747;28;20037;-44
2023/12/02 12:21:55;;;;;;;6.82;4.05;;;20.50;52.00;;;;;;5003490;28;20107;-46
2023/12/02 12:24:20;;;;;;;7.55;3.90;;;20.60;52.10;;;;;;5020028;28;20044;-46
2023/12/02 12:26:46;;;;;;;7.25;4.30;;;20.70;51.80;;;;;;5017904;28;20029;-48
2023/12/02 12:29:11;;;;;;;16.17;5.13;;;20.70;51.80;;;;;;5019077;28;20714;-47
2023/12/02 12:31:38;;;;;;;6.00;4.10;;;20.80;51.80;;;;;;5003167;28;20038;-50
2023/12/02 12:34:10;;;;;;;9.82;4.15;;;20.80;51.70;;;;;;5018522;28;20141;-51
2023/12/02 12:36:39;;;;;;;9.90;4.40;;;20.90;51.70;;;;;;5019330;28;24814;-51
2023/12/02 12:39:06;;;;;;;5.65;4.15;;;20.90;51.60;;;;;;5020546;28;20441;-53
2023/12/02 12:41:31;;;;;;;6.22;3.85;;;21.00;51.80;;;;;;5015786;28;20045;-53
2023/12/02 12:43:57;;;;;;;6.40;3.85;;;21.00;51.50;;;;;;5020257;28;20064;-47
2023/12/02 12:46:28;;;;;;;7.03;3.47;;;21.00;51.40;;;;;;5018673;28;20068;-47
2023/12/02 12:48:54;;;;;;;6.78;4.20;;;21.10;51.50;;;;;;5020021;28;20525;-50
2023/12/02 12:51:21;;;;;;;4.10;3.63;;;21.10;51.50;;;;;;5017963;28;20955;-55
2023/12/02 12:54:14;;;;;;;6.35;3.78;;;21.20;51.40;;;;;;5018623;28;20044;-51
2023/12/02 12:56:40;;;;;;;6.10;3.90;;;21.30;51.40;;;;;;5000360;28;20053;-50
2023/12/02 12:59:26;;;;;;;6.20;3.00;;;21.30;51.40;;;;;;5020141;28;20029;-54
2023/12/02 13:02:20;;;;;;;6.35;4.30;;;21.30;51.30;;;;;;5019859;28;20514;-47
2023/12/02 13:04:58;;;;;;;5.88;3.88;;;21.40;51.30;;;;;;5013471;28;20040;-47
2023/12/02 13:07:34;;;;;;;5.95;4.05;;;21.50;51.30;;;;;;5019840;28;20557;-47
2023/12/02 13:10:02;;;;;;;7.22;4.00;;;21.50;51.30;;;;;;5001395;28;20384;-46
2023/12/02 13:12:33;;;;;;;4.63;3.60;;;21.50;51.40;;;;;;5019456;28;20124;-48
2023/12/02 13:15:03;;;;;;;7.32;3.72;;;21.50;51.30;;;;;;5020303;28;20040;-46
2023/12/02 13:17:32;;;;;;;5.47;3.47;;;21.60;51.20;;;;;;5019989;28;20403;-49
2023/12/02 13:20:01;;;;;;;7.40;3.67;;;21.60;51.20;;;;;;5019820;28;20043;-49
2023/12/02 13:22:29;;;;;;;6.35;3.53;;;21.70;51.30;;;;;;5021668;28;20068;-46
2023/12/02 13:25:14;;;;;;;6.93;4.07;;;21.70;51.20;;;;;;5019441;28;20041;-48
2023/12/02 13:28:04;;;;;;;7.72;4.13;;;21.70;51.20;;;;;;5020249;28;20112;-51
2023/12/02 13:30:33;;;;;;;4.82;3.70;;;21.80;51.30;;;;;;5022822;28;20035;-48
2023/12/02 13:33:19;;;;;;;5.20;3.70;;;21.80;51.20;;;;;;5023771;28;20033;-47
2023/12/02 13:35:47;;;;;;;;;;;21.80;51.30;;;;;;5018178;28;20033;-48
2023/12/02 13:38:28;;;;;;;7.00;3.63;;;21.90;51.20;;;;;;5023071;28;20312;-50
2023/12/02 13:40:59;;;;;;;6.20;3.72;;;21.90;51.20;;;;;;5022544;28;20049;-52
2023/12/02 13:43:32;;;;;;;5.55;4.10;;;21.90;51.30;;;;;;5022255;28;20048;-51
2023/12/02 13:46:01;;;;;;;6.28;4.45;;;21.90;51.20;;;;;;5016191;28;20421;-46
2023/12/02 13:48:36;;;;;;;10.38;5.55;;;21.90;51.10;;;;;;5022690;28;20116;-46
2023/12/02 13:51:30;;;;;;;16.95;8.13;;;21.90;51.20;;;;;;5021621;28;20025;-52
2023/12/02 13:54:31;;;;;;;73.57;42.42;;;21.90;51.10;;;;;;5011698;28;20056;-53
2023/12/02 13:57:27;;;;;;;78.07;45.28;;;21.40;51.90;;;;;;5014863;28;20029;-46
2023/12/02 14:00:04;;;;;;;90.60;48.70;;;21.10;52.20;;;;;;5019942;28;20034;-55
2023/12/02 14:02:51;;;;;;;91.72;50.03;;;20.90;52.60;;;;;;5014907;28;20034;-48
2023/12/02 14:05:37;;;;;;;80.72;47.83;;;20.70;53.30;;;;;;5017803;28;20034;-50
2023/12/02 14:08:04;;;;;;;81.82;46.58;;;20.50;53.70;;;;;;5017708;28;20513;-50
2023/12/02 14:10:31;;;;;;;79.25;45.25;;;20.40;53.70;;;;;;5018489;28;20499;-52
2023/12/02 14:13:15;;;;;;;70.05;44.13;;;20.30;53.80;;;;;;5001485;28;20042;-48
2023/12/02 14:15:46;;;;;;;79.22;42.45;;;20.10;54.10;;;;;;5019159;28;20026;-48
2023/12/02 14:18:39;;;;;;;71.05;39.85;;;20.00;53.60;;;;;;5019514;28;20029;-46
2023/12/02 14:21:04;;;;;;;69.57;40.58;;;19.90;54.30;;;;;;5016346;28;20107;-54
2023/12/02 14:24:09;;;;;;;66.18;37.67;;;19.80;53.50;;;;;;5017346;28;20030;-48
2023/12/02 14:26:55;;;;;;;60.55;36.35;;;19.70;53.20;;;;;;5015543;28;20695;-49
2023/12/02 14:29:47;;;;;;;58.83;36.45;;;19.60;54.00;;;;;;5018669;28;20083;-47
2023/12/02 14:32:36;;;;;;;57.90;35.15;;;19.60;53.90;;;;;;5017291;28;20109;-47
2023/12/02 14:35:26;;;;;;;55.05;31.40;;;19.60;54.50;;;;;;5018917;28;20073;-48
2023/12/02 14:37:58;;;;;;;57.63;31.08;;;19.50;54.40;;;;;;5017583;28;20061;-46
2023/12/02 14:40:47;;;;;;;59.83;31.98;;;19.40;54.70;;;;;;5019890;28;20040;-51
2023/12/02 14:43:39;;;;;;;51.33;29.40;;;19.40;54.80;;;;;;5019833;28;20034;-49
2023/12/02 14:46:05;;;;;;;52.40;29.80;;;19.30;54.90;;;;;;5020431;28;20045;-51
2023/12/02 14:48:32;;;;;;;48.88;28.38;;;19.20;55.10;;;;;;5017289;28;20029;-49
2023/12/02 14:51:02;;;;;;;51.05;28.95;;;19.20;55.30;;;;;;5019611;28;20099;-49
2023/12/02 14:53:34;;;;;;;60.28;29.13;;;19.20;55.30;;;;;;5016504;28;20041;-51
2023/12/02 14:56:20;;;;;;;53.72;26.25;;;19.00;54.80;;;;;;5013949;28;20717;-47
2023/12/02 14:58:46;;;;;;;44.95;24.60;;;19.00;54.90;;;;;;5016053;28;20025;-53
2023/12/02 15:01:13;;;;;;;45.53;24.00;;;19.00;55.20;;;;;;5018851;28;20467;-49
2023/12/02 15:03:39;;;;;;;47.33;23.13;;;18.90;55.50;;;;;;5016142;28;20434;-47
2023/12/02 15:06:06;;;;;;;41.90;22.67;;;18.90;55.10;;;;;;5010245;28;20037;-52
2023/12/02 15:08:38;;;;;;;40.70;21.83;;;18.90;55.20;;;;;;5017101;28;20034;-46
2023/12/02 15:11:04;;;;;;;40.80;22.25;;;18.90;55.10;;;;;;5020382;28;20437;-52
2023/12/02 15:13:30;;;;;;;35.33;20.05;;;18.80;55.40;;;;;;5019897;28;20132;-49
2023/12/02 15:15:56;;;;;;;34.90;20.75;;;18.70;55.10;;;;;;5018506;28;20065;-52
2023/12/02 15:18:27;;;;;;;34.45;19.88;;;18.70;55.20;;;;;;5019723;28;20175;-48
2023/12/02 15:21:12;;;;;;;36.60;19.05;;;18.70;55.20;;;;;;5018743;28;20065;-52
2023/12/02 15:23:45;;;;;;;34.13;18.73;;;18.70;55.70;;;;;;5019486;28;20087;-47
2023/12/02 15:26:15;;;;;;;31.45;17.40;;;18.60;55.50;;;;;;5017898;28;21160;-48
2023/12/02 15:28:41;;;;;;;30.13;18.00;;;18.60;55.40;;;;;;5019504;28;20143;-45
2023/12/02 15:31:12;;;;;;;27.92;16.67;;;18.60;55.30;;;;;;5017860;28;20041;-50
2023/12/02 15:33:40;;;;;;;26.00;15.73;;;18.60;55.40;;;;;;5018004;28;20053;-48
2023/12/02 15:36:08;;;;;;;27.02;16.05;;;18.60;55.20;;;;;;5015812;28;20056;-52
2023/12/02 15:38:34;;;;;;;24.90;15.13;;;18.60;55.00;;;;;;5017360;28;20705;-50
2023/12/02 15:41:00;;;;;;;21.13;13.88;;;18.50;55.10;;;;;;5019659;28;20053;-48
2023/12/02 15:43:27;;;;;;;21.80;13.35;;;18.60;54.90;;;;;;5020546;28;20034;-49
2023/12/02 15:45:53;;;;;;;24.40;13.48;;;18.60;54.80;;;;;;5020247;28;20037;-52
2023/12/02 15:48:18;;;;;;;27.00;12.32;;;18.60;54.70;;;;;;5021777;28;20030;-49
2023/12/02 15:50:44;;;;;;;23.55;12.40;;;18.70;54.90;;;;;;5021607;28;20183;-53
2023/12/02 15:53:10;;;;;;;23.48;11.93;;;18.60;54.80;;;;;;5020565;28;20042;-53
2023/12/02 15:55:37;;;;;;;27.83;12.63;;;18.70;54.90;;;;;;5012214;28;20445;-49
2023/12/02 15:58:04;;;;;;;23.42;11.70;;;18.60;55.00;;;;;;5020999;28;20037;-52
2023/12/02 16:00:29;;;;;;;21.80;11.95;;;18.60;55.20;;;;;;5002756;28;20029;-46
2023/12/02 16:02:56;;;;;;;24.30;11.40;;;18.80;55.60;;;;;;5021175;28;20506;-49
2023/12/02 16:05:23;;;;;;;21.85;11.63;;;19.00;55.30;;;;;;5020648;28;20029;-55
2023/12/02 16:07:49;;;;;;;21.60;11.70;;;19.00;55.30;;;;;;5023910;28;20608;-47
2023/12/02 16:10:16;;;;;;;16.85;10.63;;;18.90;54.90;;;;;;5022481;28;20518;-54
2023/12/02 16:12:48;;;;;;;23.00;12.00;;;18.80;55.20;;;;;;5022293;28;20168;-46
2023/12/02 16:15:14;;;;;;;21.80;12.23;;;18.70;55.50;;;;;;5021224;28;20055;-47
2023/12/02 16:17:41;;;;;;;17.33;11.10;;;18.70;55.60;;;;;;5021622;28;20164;-50
2023/12/02 16:20:10;;;;;;;19.83;10.52;;;18.60;55.50;;;;;;5021991;28;20187;-53
2023/12/02 16:22:36;;;;;;;21.83;10.65;;;18.60;55.60;;;;;;5024967;28;20401;-49
2023/12/02 16:25:03;;;;;;;18.33;11.25;;;18.60;55.80;;;;;;5023157;28;20029;-56
2023/12/02 16:27:30;;;;;;;19.20;11.77;;;18.50;56.20;;;;;;5022788;28;20040;-53
2023/12/02 16:29:57;;;;;;;18.75;11.57;;;18.50;56.50;;;;;;5020071;28;20103;-57
2023/12/02 16:32:24;;;;;;;18.02;11.10;;;18.40;56.60;;;;;;5018769;28;20113;-50
2023/12/02 16:34:51;;;;;;;20.30;11.93;;;18.40;56.80;;;;;;5018730;28;20117;-54
2023/12/02 16:37:18;;;;;;;17.55;10.93;;;18.40;57.00;;;;;;5018692;28;20679;-53
2023/12/02 16:39:47;;;;;;;22.48;12.40;;;18.40;57.40;;;;;;5021235;28;20040;-53
2023/12/02 16:42:13;;;;;;;18.65;11.23;;;18.30;57.00;;;;;;5019622;28;20034;-55
2023/12/02 16:44:38;;;;;;;15.20;10.50;;;18.20;57.60;;;;;;5018828;28;20049;-52
2023/12/02 16:47:06;;;;;;;14.98;10.93;;;18.10;57.80;;;;;;5017485;28;20140;-52
2023/12/02 16:49:31;;;;;;;19.15;11.38;;;17.90;57.80;;;;;;5018218;28;20053;-55
2023/12/02 16:51:56;;;;;;;16.45;10.80;;;17.90;58.00;;;;;;5020095;28;20087;-61
2023/12/02 16:54:31;;;;;;;15.82;10.68;;;17.80;58.10;;;;;;5018416;28;20487;-55
2023/12/02 16:56:59;;;;;;;14.98;10.38;;;17.80;58.20;;;;;;5016990;28;20037;-58
2023/12/02 16:59:48;;;;;;;14.23;10.30;;;17.70;58.20;;;;;;5019140;28;20037;-56
2023/12/02 17:02:37;;;;;;;13.27;10.57;;;17.70;58.30;;;;;;5019633;28;20041;-58
2023/12/02 17:05:26;;;;;;;15.93;10.20;;;17.60;58.40;;;;;;5019293;28;20042;-54
2023/12/02 17:08:24;;;;;;;13.73;9.90;;;17.60;58.40;;;;;;5030360;28;20068;-57
2023/12/02 17:10:58;;;;;;;12.88;9.88;;;17.60;58.40;;;;;;4964464;28;20111;-55
2023/12/02 17:13:27;;;;;;;14.98;10.05;;;17.60;58.40;;;;;;5022672;28;20056;-52
2023/12/02 17:15:52;;;;;;;14.27;9.82;;;17.50;58.40;;;;;;5022292;28;20041;-50
2023/12/02 17:18:37;;;;;;;12.00;8.68;;;17.50;58.40;;;;;;5022187;28;20433;-54
2023/12/02 17:21:04;;;;;;;12.77;8.70;;;17.50;58.50;;;;;;5020792;28;20041;-54
2023/12/02 17:23:32;;;;;;;11.88;9.30;;;17.50;58.60;;;;;;5022321;28;20514;-54
2023/12/02 17:25:59;;;;;;;12.57;9.15;;;17.50;58.60;;;;;;5021860;28;20132;-62
2023/12/02 17:28:25;;;;;;;14.75;9.70;;;17.50;58.60;;;;;;5028740;28;20040;-52
2023/12/02 17:30:51;;;;;;;12.32;9.00;;;17.40;58.50;;;;;;5022535;28;20136;-50
2023/12/02 17:33:16;;;;;;;12.18;8.90;;;17.40;58.70;;;;;;5025327;28;20113;-56
2023/12/02 17:35:42;;;;;;;12.10;8.80;;;17.40;58.60;;;;;;5027552;28;20052;-56
2023/12/02 17:38:08;;;;;;;11.80;8.68;;;17.30;58.60;;;;;;5024679;28;20068;-54
2023/12/02 17:40:33;;;;;;;10.30;7.10;;;17.40;58.70;;;;;;5024053;28;20037;-56
2023/12/02 17:42:59;;;;;;;15.68;7.43;;;17.60;57.50;;;;;;5024977;28;20044;-57
2023/12/02 17:45:24;;;;;;;13.38;7.30;;;17.80;56.90;;;;;;5022735;28;20075;-54
2023/12/02 17:47:50;;;;;;;7.70;6.68;;;17.70;57.20;;;;;;5022431;28;20567;-55
2023/12/02 17:50:15;;;;;;;8.45;6.40;;;17.50;57.50;;;;;;5021164;28;20025;-51
2023/12/02 17:52:42;;;;;;;8.00;6.50;;;17.50;57.70;;;;;;5022722;28;20072;-52
2023/12/02 17:55:11;;;;;;;9.82;7.00;;;17.40;58.10;;;;;;5019988;28;20063;-57
2023/12/02 17:57:37;;;;;;;8.68;6.53;;;17.40;58.20;;;;;;5020638;28;20144;-53
2023/12/02 18:00:05;;;;;;;9.45;6.35;;;17.40;58.30;;;;;;5020802;28;20419;-55
2023/12/02 18:02:31;;;;;;;6.45;5.85;;;17.30;58.20;;;;;;5019361;28;20045;-55
2023/12/02 18:04:57;;;;;;;8.90;6.45;;;17.30;58.20;;;;;;5012274;28;20130;-54
2023/12/02 18:07:24;;;;;;;8.48;5.78;;;17.20;58.30;;;;;;5014779;28;20038;-48
2023/12/02 18:09:49;;;;;;;8.18;6.18;;;17.30;58.30;;;;;;5018539;28;20075;-48
2023/12/02 18:12:15;;;;;;;7.90;5.88;;;17.30;58.40;;;;;;5019772;28;20116;-53
2023/12/02 18:14:40;;;;;;;8.45;5.75;;;17.20;58.50;;;;;;5019750;28;21019;-56
2023/12/02 18:17:06;;;;;;;9.00;6.35;;;17.20;58.50;;;;;;5022092;28;20029;-57
2023/12/02 18:19:32;;;;;;;8.27;5.97;;;17.20;58.60;;;;;;5006874;28;20083;-50
2023/12/02 18:22:03;;;;;;;8.65;5.63;;;17.20;58.60;;;;;;5018735;28;20045;-52
2023/12/02 18:24:28;;;;;;;7.78;5.68;;;17.10;58.60;;;;;;5016933;28;20030;-46
2023/12/02 18:26:54;;;;;;;7.82;5.13;;;17.20;58.70;;;;;;5016795;28;20040;-46
2023/12/02 18:29:19;;;;;;;8.18;5.68;;;17.20;58.80;;;;;;5019740;28;20517;-53
2023/12/02 18:31:45;;;;;;;9.40;5.15;;;17.10;58.90;;;;;;5018432;28;20026;-46
2023/12/02 18:34:11;;;;;;;8.63;6.20;;;17.20;59.00;;;;;;5020133;28;20033;-47
2023/12/02 18:36:36;;;;;;;11.75;5.72;;;17.10;59.00;;;;;;5020153;28;20116;-53
2023/12/02 18:39:03;;;;;;;9.50;5.90;;;17.10;59.10;;;;;;5019114;28;20044;-54
2023/12/02 18:41:28;;;;;;;11.32;6.78;;;17.10;59.30;;;;;;5017738;28;20041;-51
2023/12/02 18:43:54;;;;;;;10.95;5.97;;;17.10;59.40;;;;;;5019263;28;20099;-50
2023/12/02 18:46:19;;;;;;;10.73;7.97;;;17.10;59.50;;;;;;5016936;28;20770;-48
2023/12/02 18:48:45;;;;;;;15.73;9.93;;;17.00;59.50;;;;;;5019080;28;20039;-49